createdAt,value
2023-04-02T00:00:12.257Z,102350.91
2023-04-02T00:02:46.555Z,102338.78
2023-04-02T00:05:21.431Z,102338.78
2023-04-02T00:07:52.533Z,102319.22
2023-04-02T00:10:38.539Z,102342.88
2023-04-02T00:13:13.071Z,102333.50
2023-04-02T00:15:43.288Z,102344.47
2023-04-02T00:18:19.331Z,102322.25
2023-04-02T00:21:14.219Z,102334.38
2023-04-02T00:23:44.675Z,102307.75
2023-04-02T00:26:22.529Z,102341.34
2023-04-02T00:28:52.887Z,102323.75
2023-04-02T00:31:21.948Z,102307.63
2023-04-02T00:33:51.346Z,102302.44
2023-04-02T00:36:23.028Z,102300.53
2023-04-02T00:38:52.065Z,102331.38
2023-04-02T00:41:25.610Z,102304.06
2023-04-02T00:43:55.490Z,102309.56
2023-04-02T00:46:47.569Z,102331.69
2023-04-02T00:49:33.770Z,102330.84
2023-04-02T00:52:09.253Z,102310.38
2023-04-02T00:54:49.702Z,102332.47
2023-04-02T00:57:27.245Z,102299.84
2023-04-02T01:00:00.912Z,102321.31
2023-04-02T01:02:39.126Z,102326.75
2023-04-02T01:05:17.486Z,102299.53
2023-04-02T01:08:01.030Z,102224.69
2023-04-02T01:11:09.615Z,102298.44
2023-04-02T01:13:48.155Z,102309.00
2023-04-02T01:16:47.486Z,102319.78
2023-04-02T01:19:37.480Z,102329.44
2023-04-02T01:22:35.710Z,102283.09
2023-04-02T01:25:07.306Z,102271.69
2023-04-02T01:27:51.097Z,102329.78
2023-04-02T01:30:21.944Z,102322.00
2023-04-02T01:32:51.330Z,102290.59
2023-04-02T01:35:20.467Z,102295.00
2023-04-02T01:38:01.217Z,102235.03
2023-04-02T01:40:40.375Z,102334.19
2023-04-02T01:43:32.571Z,102290.94
2023-04-02T01:46:24.360Z,102291.41
2023-04-02T01:48:58.223Z,102331.16
2023-04-02T01:51:33.538Z,102225.00
2023-04-02T01:54:06.966Z,102332.72
2023-04-02T01:56:36.662Z,102295.19
2023-04-02T01:59:06.748Z,102218.50
2023-04-02T02:02:08.556Z,102311.66
2023-04-02T02:04:41.340Z,102286.03
2023-04-02T02:07:21.380Z,102320.69
2023-04-02T02:09:54.567Z,102292.88
2023-04-02T02:12:23.847Z,102322.91
2023-04-02T02:14:53.136Z,102239.63
2023-04-02T02:17:31.870Z,102238.72
2023-04-02T02:20:03.190Z,102322.50
2023-04-02T02:22:36.107Z,102294.72
2023-04-02T02:25:12.137Z,102230.84
2023-04-02T02:28:10.145Z,102321.38
2023-04-02T02:30:44.528Z,102323.22
2023-04-02T02:33:26.085Z,102319.72
2023-04-02T02:36:01.949Z,102329.38
2023-04-02T02:38:40.081Z,102332.88
2023-04-02T02:41:42.877Z,102331.19
2023-04-02T02:44:17.247Z,102335.56
2023-04-02T02:47:29.176Z,102330.28
2023-04-02T02:50:05.478Z,102254.97
2023-04-02T02:52:37.719Z,102328.53
2023-04-02T02:55:25.373Z,102251.41
2023-04-02T02:58:24.539Z,102334.53
2023-04-02T03:01:02.433Z,102315.97
2023-04-02T03:03:37.749Z,102303.44
2023-04-02T03:06:11.626Z,102325.25
2023-04-02T03:08:52.583Z,102321.56
2023-04-02T03:11:28.389Z,102324.75
2023-04-02T03:14:07.776Z,102330.34
2023-04-02T03:16:45.056Z,102317.19
2023-04-02T03:19:25.982Z,102313.44
2023-04-02T03:22:18.612Z,102287.63
2023-04-02T03:24:50.737Z,102316.31
2023-04-02T03:27:31.476Z,102302.81
2023-04-02T03:30:27.874Z,102304.44
2023-04-02T03:33:18.585Z,102278.16
2023-04-02T03:36:04.280Z,102166.56
2023-04-02T03:38:44.326Z,102306.03
2023-04-02T03:41:41.507Z,102295.53
2023-04-02T03:44:23.537Z,102258.91
2023-04-02T03:47:07.094Z,102275.66
2023-04-02T03:49:39.665Z,102297.91
2023-04-02T03:52:14.871Z,102289.06
2023-04-02T03:54:53.108Z,102290.19
2023-04-02T03:57:57.914Z,102287.91
2023-04-02T04:00:44.976Z,102278.31
2023-04-02T04:03:38.167Z,102307.47
2023-04-02T04:06:11.690Z,102222.53
2023-04-02T04:08:58.302Z,102268.50
2023-04-02T04:11:32.432Z,102298.38
2023-04-02T04:14:10.667Z,102270.31
2023-04-02T04:16:43.557Z,102320.25
2023-04-02T04:19:22.714Z,102303.59
2023-04-02T04:21:58.654Z,102217.63
2023-04-02T04:24:29.012Z,102268.81
2023-04-02T04:27:10.093Z,102255.72
2023-04-02T04:30:06.643Z,102282.06
2023-04-02T04:32:50.827Z,102282.78
2023-04-02T04:35:52.231Z,102299.69
2023-04-02T04:38:33.477Z,102281.41
2023-04-02T04:41:14.212Z,102281.41
2023-04-02T04:43:46.383Z,102318.16
2023-04-02T04:46:29.848Z,102281.25
2023-04-02T04:49:36.402Z,102298.84
2023-04-02T04:52:10.828Z,102305.81
2023-04-02T04:54:40.473Z,102305.75
2023-04-02T04:57:38.194Z,102279.41
2023-04-02T05:00:13.747Z,102321.34
2023-04-02T05:03:21.455Z,102285.53
2023-04-02T05:05:51.456Z,102289.22
2023-04-02T05:08:35.424Z,102288.44
2023-04-02T05:11:17.039Z,102280.69
2023-04-02T05:13:52.765Z,102255.28
2023-04-02T05:16:32.369Z,102293.06
2023-04-02T05:19:11.659Z,102289.56
2023-04-02T05:22:16.103Z,102304.59
2023-04-02T05:25:14.423Z,102301.94
2023-04-02T05:27:49.487Z,102285.25
2023-04-02T05:30:24.031Z,102305.44
2023-04-02T05:33:08.752Z,102294.16
2023-04-02T05:35:42.744Z,102273.19
2023-04-02T05:38:22.644Z,102290.72
2023-04-02T05:41:04.716Z,102178.66
2023-04-02T05:43:38.049Z,102224.13
2023-04-02T05:46:22.104Z,102293.34
2023-04-02T05:48:59.443Z,102289.00
2023-04-02T05:51:51.372Z,102299.50
2023-04-02T05:54:30.179Z,102294.25
2023-04-02T05:57:14.868Z,102288.09
2023-04-02T06:00:09.767Z,102320.50
2023-04-02T06:02:46.398Z,102323.19
2023-04-02T06:05:24.722Z,102312.72
2023-04-02T06:07:59.563Z,102321.50
2023-04-02T06:10:48.103Z,102186.63
2023-04-02T06:13:19.872Z,102315.38
2023-04-02T06:15:49.307Z,102299.63
2023-04-02T06:18:29.616Z,102230.44
2023-04-02T06:20:58.811Z,102301.38
2023-04-02T06:23:33.318Z,102322.41
2023-04-02T06:26:26.160Z,102309.22
2023-04-02T06:29:07.871Z,102304.00
2023-04-02T06:31:36.683Z,102323.28
2023-04-02T06:34:14.123Z,102324.16
2023-04-02T06:36:47.058Z,102292.59
2023-04-02T06:39:23.381Z,102273.34
2023-04-02T06:42:16.273Z,102290.00
2023-04-02T06:45:26.436Z,102290.88
2023-04-02T06:48:20.510Z,102275.97
2023-04-02T06:51:15.079Z,102303.09
2023-04-02T06:53:49.329Z,102284.72
2023-04-02T06:56:46.422Z,102307.44
2023-04-02T06:59:21.485Z,102294.28
2023-04-02T07:01:55.705Z,102267.16
2023-04-02T07:04:25.649Z,102277.69
2023-04-02T07:06:55.639Z,102301.28
2023-04-02T07:09:27.535Z,102233.00
2023-04-02T07:11:59.884Z,102266.22
2023-04-02T07:14:28.599Z,102299.41
2023-04-02T07:16:57.688Z,102278.47
2023-04-02T07:19:26.844Z,102268.81
2023-04-02T07:22:01.673Z,102287.25
2023-04-02T07:24:36.708Z,102268.81
2023-04-02T07:27:05.391Z,102267.91
2023-04-02T07:29:34.197Z,102261.72
2023-04-02T07:32:02.731Z,102196.09
2023-04-02T07:34:31.546Z,102255.59
2023-04-02T07:37:00.313Z,102251.25
2023-04-02T07:39:29.447Z,102273.09
2023-04-02T07:42:01.400Z,102278.38
2023-04-02T07:44:30.406Z,102191.75
2023-04-02T07:46:59.453Z,102254.72
2023-04-02T07:49:28.286Z,102267.00
2023-04-02T07:51:57.062Z,102273.19
2023-04-02T07:54:25.745Z,102253.03
2023-04-02T07:56:54.694Z,102242.50
2023-04-02T07:59:26.116Z,102247.66
2023-04-02T08:01:58.180Z,102270.34
2023-04-02T08:04:27.204Z,102271.31
2023-04-02T08:06:56.172Z,102259.03
2023-04-02T08:09:24.949Z,102261.63
2023-04-02T08:11:53.545Z,102257.31
2023-04-02T08:14:22.562Z,102272.97
2023-04-02T08:16:56.548Z,102274.69
2023-04-02T08:19:25.685Z,102251.09
2023-04-02T08:21:54.383Z,102222.19
2023-04-02T08:24:23.383Z,102244.94
2023-04-02T08:26:55.444Z,102258.94
2023-04-02T08:29:24.511Z,102258.84
2023-04-02T08:31:55.633Z,102158.22
2023-04-02T08:34:24.356Z,102229.97
2023-04-02T08:36:57.953Z,102232.72
2023-04-02T08:39:30.112Z,102211.75
2023-04-02T08:42:41.240Z,102217.84
2023-04-02T08:46:02.064Z,102237.94
2023-04-02T08:48:33.671Z,102211.75
2023-04-02T08:51:04.065Z,102223.16
2023-04-02T08:53:38.458Z,102225.81
2023-04-02T08:56:32.868Z,102232.78
2023-04-02T08:59:10.217Z,102239.78
2023-04-02T09:02:02.555Z,102217.91
2023-04-02T09:04:33.204Z,102234.53
2023-04-02T09:07:02.070Z,102217.03
2023-04-02T09:09:34.900Z,102224.88
2023-04-02T09:12:05.341Z,102241.56
2023-04-02T09:14:50.993Z,102219.66
2023-04-02T09:17:24.958Z,102203.94
2023-04-02T09:20:17.852Z,102218.84
2023-04-02T09:22:51.397Z,102215.38
2023-04-02T09:25:23.214Z,102225.81
2023-04-02T09:27:55.394Z,102131.38
2023-04-02T09:30:32.489Z,102224.09
2023-04-02T09:33:09.922Z,102210.09
2023-04-02T09:35:58.704Z,102232.03
2023-04-02T09:38:33.629Z,102213.66
2023-04-02T09:41:05.865Z,102226.78
2023-04-02T09:43:37.687Z,102206.66
2023-04-02T09:46:16.301Z,102224.19
2023-04-02T09:48:46.323Z,102217.22
2023-04-02T09:51:18.600Z,102205.00
2023-04-02T09:54:15.962Z,102212.91
2023-04-02T09:57:05.144Z,102212.03
2023-04-02T09:59:34.398Z,102193.66
2023-04-02T10:02:06.947Z,102178.78
2023-04-02T10:04:47.952Z,102209.41
2023-04-02T10:07:38.893Z,102203.25
2023-04-02T10:10:42.884Z,102123.69
2023-04-02T10:13:39.793Z,102201.53
2023-04-02T10:16:20.962Z,102207.69
2023-04-02T10:18:59.434Z,102188.41
2023-04-02T10:21:36.702Z,102171.78
2023-04-02T10:24:28.249Z,102195.44
2023-04-02T10:27:23.373Z,102196.31
2023-04-02T10:29:56.098Z,102199.81
2023-04-02T10:32:38.358Z,102179.66
2023-04-02T10:35:10.042Z,102195.41
2023-04-02T10:37:50.007Z,102194.56
2023-04-02T10:40:27.623Z,102186.66
2023-04-02T10:43:10.176Z,102173.56
2023-04-02T10:46:02.443Z,102188.44
2023-04-02T10:48:36.952Z,102197.19
2023-04-02T10:51:15.658Z,102175.28
2023-04-02T10:54:24.953Z,102178.81
2023-04-02T10:56:55.926Z,102163.91
2023-04-02T10:59:34.647Z,102164.78
2023-04-02T11:02:11.926Z,102170.91
2023-04-02T11:04:47.118Z,102096.50
2023-04-02T11:07:23.298Z,102148.13
2023-04-02T11:09:55.817Z,102185.78
2023-04-02T11:12:46.960Z,102165.66
2023-04-02T11:15:20.100Z,102168.28
2023-04-02T11:17:49.709Z,102164.75
2023-04-02T11:20:49.495Z,102170.00
2023-04-02T11:23:21.922Z,102177.00
2023-04-02T11:25:50.927Z,102145.50
2023-04-02T11:28:33.007Z,102163.03
2023-04-02T11:31:02.774Z,102140.25
2023-04-02T11:33:44.063Z,102169.13
2023-04-02T11:36:51.106Z,102165.63
2023-04-02T11:39:54.312Z,102160.41
2023-04-02T11:42:27.058Z,102145.50
2023-04-02T11:44:57.333Z,102168.28
2023-04-02T11:47:28.574Z,102070.28
2023-04-02T11:50:02.175Z,102168.25
2023-04-02T11:52:38.794Z,102188.38
2023-04-02T11:55:31.442Z,102135.00
2023-04-02T11:58:18.470Z,102162.16
2023-04-02T12:01:12.951Z,102133.28
2023-04-02T12:04:06.451Z,102144.63
2023-04-02T12:06:53.932Z,102149.03
2023-04-02T12:09:37.680Z,102149.88
2023-04-02T12:12:32.600Z,102149.03
2023-04-02T12:15:02.013Z,102136.78
2023-04-02T12:17:41.103Z,102115.72
2023-04-02T12:20:10.407Z,102155.09
2023-04-02T12:22:41.497Z,102149.81
2023-04-02T12:25:25.487Z,102143.75
2023-04-02T12:28:12.033Z,102140.22
2023-04-02T12:30:45.368Z,102110.47
2023-04-02T12:33:39.334Z,102139.31
2023-04-02T12:36:24.619Z,102105.16
2023-04-02T12:38:54.602Z,102133.13
2023-04-02T12:41:31.050Z,102128.75
2023-04-02T12:44:01.071Z,102134.84
2023-04-02T12:46:31.877Z,102109.47
2023-04-02T12:49:10.902Z,102108.56
2023-04-02T12:51:40.203Z,102108.53
2023-04-02T12:54:16.274Z,102088.38
2023-04-02T12:56:45.811Z,102085.75
2023-04-02T12:59:44.648Z,102121.59
2023-04-02T13:02:29.508Z,102099.69
2023-04-02T13:05:03.160Z,102101.41
2023-04-02T13:07:34.691Z,102123.25
2023-04-02T13:10:26.975Z,102115.38
2023-04-02T13:13:04.214Z,102101.28
2023-04-02T13:15:37.204Z,102116.13
2023-04-02T13:18:22.184Z,102118.75
2023-04-02T13:20:59.714Z,102083.69
2023-04-02T13:23:31.169Z,102109.03
2023-04-02T13:26:03.721Z,102085.34
2023-04-02T13:28:32.949Z,102044.97
2023-04-02T13:31:02.085Z,102074.72
2023-04-02T13:33:33.027Z,102069.44
2023-04-02T13:36:02.359Z,102066.75
2023-04-02T13:38:31.146Z,102064.06
2023-04-02T13:40:59.896Z,102067.50
2023-04-02T13:43:28.925Z,102071.81
2023-04-02T13:46:00.808Z,102068.22
2023-04-02T13:48:29.572Z,102005.00
2023-04-02T13:50:58.332Z,102062.69
2023-04-02T13:53:34.126Z,102078.38
2023-04-02T13:56:03.461Z,102082.69
2023-04-02T13:58:32.236Z,102100.13
2023-04-02T14:01:02.364Z,102104.44
2023-04-02T14:03:31.773Z,102100.91
2023-04-02T14:06:04.257Z,102086.84
2023-04-02T14:08:53.910Z,102094.63
2023-04-02T14:11:28.567Z,102117.19
2023-04-02T14:14:14.107Z,102106.53
2023-04-02T14:16:58.260Z,102111.66
2023-04-02T14:19:32.799Z,102109.94
2023-04-02T14:22:17.855Z,102110.59
2023-04-02T14:25:11.703Z,102119.28
2023-04-02T14:28:07.794Z,102071.03
2023-04-02T14:31:04.137Z,102098.13
2023-04-02T14:33:41.182Z,102043.72
2023-04-02T14:36:17.780Z,102090.16
2023-04-02T14:38:58.946Z,102066.44
2023-04-02T14:42:19.120Z,102068.97
2023-04-02T14:45:03.297Z,102071.59
2023-04-02T14:47:48.944Z,102063.66
2023-04-02T14:50:28.732Z,102075.00
2023-04-02T14:53:04.917Z,102053.84
2023-04-02T14:55:47.525Z,102036.13
2023-04-02T14:58:34.231Z,102071.19
2023-04-02T15:01:14.490Z,102045.78
2023-04-02T15:04:21.753Z,102084.22
2023-04-02T15:06:54.772Z,102059.72
2023-04-02T15:09:33.031Z,102049.13
2023-04-02T15:12:10.172Z,102084.94
2023-04-02T15:14:45.140Z,102086.56
2023-04-02T15:17:14.137Z,102073.41
2023-04-02T15:19:42.856Z,102075.97
2023-04-02T15:22:29.658Z,102076.78
2023-04-02T15:25:14.088Z,102081.03
2023-04-02T15:27:45.620Z,102083.50
2023-04-02T15:30:21.514Z,102040.50
2023-04-02T15:32:51.341Z,102067.81
2023-04-02T15:35:53.248Z,102045.00
2023-04-02T15:38:27.880Z,102078.22
2023-04-02T15:41:16.414Z,102074.69
2023-04-02T15:44:03.935Z,102067.66
2023-04-02T15:47:09.994Z,102068.50
2023-04-02T15:49:43.627Z,102062.25
2023-04-02T15:52:50.030Z,102067.53
2023-04-02T15:55:47.808Z,102072.84
2023-04-02T15:58:41.818Z,101965.03
2023-04-02T16:01:29.446Z,102068.50
2023-04-02T16:04:18.904Z,102060.63
2023-04-02T16:07:15.689Z,102056.31
2023-04-02T16:10:40.328Z,102025.50
2023-04-02T16:13:16.885Z,102031.72
2023-04-02T16:15:59.609Z,102044.88
2023-04-02T16:18:39.908Z,102038.88
2023-04-02T16:21:11.631Z,102017.91
2023-04-02T16:23:41.571Z,102059.00
2023-04-02T16:26:32.560Z,102042.47
2023-04-02T16:29:47.096Z,101922.25
2023-04-02T16:32:37.269Z,102009.97
2023-04-02T16:35:47.753Z,102037.06
2023-04-02T16:38:44.874Z,102052.66
2023-04-02T16:41:48.835Z,102032.53
2023-04-02T16:44:45.642Z,102036.19
2023-04-02T16:47:14.772Z,102037.03
2023-04-02T16:49:43.639Z,102039.66
2023-04-02T16:52:33.553Z,102033.53
2023-04-02T16:55:11.104Z,102030.97
2023-04-02T16:57:55.549Z,102022.28
2023-04-02T17:00:51.333Z,102017.91
2023-04-02T17:03:41.744Z,102022.28
2023-04-02T17:06:17.219Z,102017.06
2023-04-02T17:08:55.032Z,102008.38
2023-04-02T17:11:41.419Z,101970.56
2023-04-02T17:14:58.231Z,102012.63
2023-04-02T17:17:59.797Z,101965.22
2023-04-02T17:20:29.844Z,102008.31
2023-04-02T17:22:59.256Z,101999.47
2023-04-02T17:25:34.892Z,102000.31
2023-04-02T17:28:06.858Z,101976.75
2023-04-02T17:31:06.737Z,101990.69
2023-04-02T17:33:35.389Z,101971.47
2023-04-02T17:36:33.654Z,101994.28
2023-04-02T17:39:29.235Z,101995.19
2023-04-02T17:42:17.976Z,101984.50
2023-04-02T17:44:55.832Z,101987.22
2023-04-02T17:47:32.055Z,101985.50
2023-04-02T17:50:12.260Z,101982.03
2023-04-02T17:52:47.172Z,101982.72
2023-04-02T17:55:20.950Z,101982.72
2023-04-02T17:58:10.260Z,101986.19
2023-04-02T18:00:58.676Z,101965.97
2023-04-02T18:03:42.482Z,101978.25
2023-04-02T18:06:19.712Z,101950.25
2023-04-02T18:09:06.553Z,101959.94
2023-04-02T18:11:44.195Z,101966.22
2023-04-02T18:14:30.396Z,101964.38
2023-04-02T18:17:24.013Z,101953.88
2023-04-02T18:20:21.075Z,101961.72
2023-04-02T18:23:17.596Z,101952.16
2023-04-02T18:26:07.471Z,101956.50
2023-04-02T18:29:06.524Z,101940.59
2023-04-02T18:31:53.671Z,101955.47
2023-04-02T18:34:41.213Z,101852.78
2023-04-02T18:37:24.394Z,101930.84
2023-04-02T18:40:27.234Z,101945.75
2023-04-02T18:43:22.012Z,101929.91
2023-04-02T18:46:15.324Z,101936.88
2023-04-02T18:48:51.248Z,101932.59
2023-04-02T18:51:26.751Z,101932.50
2023-04-02T18:54:23.511Z,101894.75
2023-04-02T18:56:52.531Z,101901.78
2023-04-02T18:59:43.808Z,101920.06
2023-04-02T19:02:44.203Z,101931.44
2023-04-02T19:05:36.044Z,101933.06
2023-04-02T19:08:34.539Z,101899.75
2023-04-02T19:11:10.409Z,101933.81
2023-04-02T19:13:39.810Z,101899.56
2023-04-02T19:16:11.515Z,101932.75
2023-04-02T19:19:21.877Z,101930.84
2023-04-02T19:22:09.689Z,101927.22
2023-04-02T19:24:55.756Z,101931.47
2023-04-02T19:27:43.131Z,101930.44
2023-04-02T19:30:23.729Z,101936.47
2023-04-02T19:33:00.902Z,101947.56
2023-04-02T19:36:09.591Z,101908.25
2023-04-02T19:39:10.150Z,101922.00
2023-04-02T19:42:09.107Z,101928.03
2023-04-02T19:44:44.438Z,101892.06
2023-04-02T19:47:14.847Z,101899.88
2023-04-02T19:49:43.773Z,101879.63
2023-04-02T19:52:12.748Z,101892.72
2023-04-02T19:54:41.669Z,101910.97
2023-04-02T19:57:15.363Z,101757.41
2023-04-02T19:59:43.962Z,101806.38
2023-04-02T20:02:12.806Z,101911.44
2023-04-02T20:04:41.716Z,101796.50
2023-04-02T20:07:10.455Z,101849.97
2023-04-02T20:09:39.292Z,101877.81
2023-04-02T20:12:09.089Z,101882.06
2023-04-02T20:14:40.674Z,101907.50
2023-04-02T20:17:10.150Z,101877.50
2023-04-02T20:19:39.040Z,101907.94
2023-04-02T20:22:08.033Z,101908.03
2023-04-02T20:24:37.283Z,101868.56
2023-04-02T20:27:06.756Z,101895.59
2023-04-02T20:29:38.168Z,101867.59
2023-04-02T20:32:07.033Z,101897.28
2023-04-02T20:34:36.684Z,101859.53
2023-04-02T20:37:05.639Z,101883.06
2023-04-02T20:39:34.319Z,101878.72
2023-04-02T20:42:04.414Z,101883.78
2023-04-02T20:44:33.801Z,101881.03
2023-04-02T20:47:02.773Z,101856.34
2023-04-02T20:49:31.596Z,101845.75
2023-04-02T20:52:00.398Z,101886.81
2023-04-02T20:54:29.365Z,101854.28
2023-04-02T20:56:58.282Z,101834.91
2023-04-02T20:59:27.078Z,101862.06
2023-04-02T21:01:56.291Z,101866.47
2023-04-02T21:04:25.398Z,101852.31
2023-04-02T21:06:57.743Z,101876.91
2023-04-02T21:09:26.463Z,101874.47
2023-04-02T21:11:55.465Z,101863.81
2023-04-02T21:14:24.888Z,101870.88
2023-04-02T21:16:53.839Z,101845.47
2023-04-02T21:19:22.780Z,101871.69
2023-04-02T21:21:51.678Z,101778.56
2023-04-02T21:24:20.583Z,101870.84
2023-04-02T21:26:49.554Z,101849.72
2023-04-02T21:29:19.297Z,101885.34
2023-04-02T21:31:48.111Z,101853.00
2023-04-02T21:34:17.977Z,101810.84
2023-04-02T21:36:49.154Z,101845.16
2023-04-02T21:39:23.507Z,101881.13
2023-04-02T21:41:54.321Z,101608.78
2023-04-02T21:44:25.136Z,101881.03
2023-04-02T21:46:54.415Z,101862.56
2023-04-02T21:49:24.289Z,101861.75
2023-04-02T21:51:55.650Z,101880.94
2023-04-02T21:54:25.071Z,101866.84
2023-04-02T21:56:55.023Z,101852.84
2023-04-02T21:59:24.306Z,101775.44
2023-04-02T22:01:53.517Z,101878.09
2023-04-02T22:04:25.305Z,101873.78
2023-04-02T22:06:54.757Z,101870.28
2023-04-02T22:09:27.332Z,101767.44
2023-04-02T22:12:02.431Z,101840.25
2023-04-02T22:14:31.517Z,101831.44
2023-04-02T22:17:00.549Z,101841.91
2023-04-02T22:19:29.672Z,101862.97
2023-04-02T22:21:58.411Z,101843.63
2023-04-02T22:24:27.801Z,101874.28
2023-04-02T22:26:56.694Z,101856.63
2023-04-02T22:29:25.529Z,101760.19
2023-04-02T22:31:54.189Z,101849.59
2023-04-02T22:34:23.095Z,101868.84
2023-04-02T22:36:53.796Z,101760.28
2023-04-02T22:39:22.407Z,101875.00
2023-04-02T22:41:50.994Z,101847.94
2023-04-02T22:44:19.660Z,101863.66
2023-04-02T22:46:48.711Z,101868.75
2023-04-02T22:49:19.789Z,101878.34
2023-04-02T22:51:49.184Z,101879.09
2023-04-02T22:54:17.960Z,101875.63
2023-04-02T22:56:46.778Z,101842.19
2023-04-02T22:59:15.591Z,101851.75
2023-04-02T23:01:44.999Z,101897.38
2023-04-02T23:04:13.684Z,101760.63
2023-04-02T23:06:42.424Z,101883.38
2023-04-02T23:09:11.762Z,101884.31
2023-04-02T23:11:40.496Z,101901.63
2023-04-02T23:14:09.220Z,101873.72
2023-04-02T23:16:37.944Z,101902.53
2023-04-02T23:19:06.854Z,101762.97
2023-04-02T23:21:36.533Z,101891.28
2023-04-02T23:24:05.738Z,101864.19
2023-04-02T23:26:34.151Z,101849.25
2023-04-02T23:29:03.609Z,101862.53
2023-04-02T23:31:32.548Z,101873.81
2023-04-02T23:34:01.319Z,101892.97
2023-04-02T23:36:32.559Z,101895.00
2023-04-02T23:39:10.066Z,101877.44
2023-04-02T23:41:42.127Z,101871.97
2023-04-02T23:44:11.033Z,101855.31
2023-04-02T23:46:39.796Z,101781.56
2023-04-02T23:49:10.748Z,101888.63
2023-04-02T23:51:40.036Z,101858.78
2023-04-02T23:54:08.659Z,101880.75
2023-04-02T23:56:37.352Z,101850.13
2023-04-02T23:59:06.361Z,101864.19
